createdAt,value
2018-11-06T00:02:59.739Z,84.90
2018-11-06T00:08:02.076Z,85.07
2018-11-06T00:13:04.899Z,85.03
2018-11-06T00:18:07.205Z,84.80
2018-11-06T00:23:09.538Z,84.57
2018-11-06T00:28:11.865Z,84.39
2018-11-06T00:33:14.245Z,84.40
2018-11-06T00:38:16.545Z,84.29
2018-11-06T00:43:19.009Z,84.06
2018-11-06T00:48:21.449Z,84.13
2018-11-06T00:53:23.757Z,84.14
2018-11-06T00:58:26.081Z,84.65
2018-11-06T01:03:34.069Z,84.18
2018-11-06T01:08:36.374Z,84.10
2018-11-06T01:13:38.916Z,84.11
2018-11-06T01:18:41.359Z,83.68
2018-11-06T01:23:43.666Z,83.20
2018-11-06T01:28:46.034Z,83.73
2018-11-06T01:33:48.482Z,83.87
2018-11-06T01:38:50.866Z,84.68
2018-11-06T01:43:53.270Z,84.93
2018-11-06T01:48:55.625Z,84.62
2018-11-06T01:53:58.107Z,85.20
2018-11-06T01:59:00.452Z,84.79
2018-11-06T02:04:02.914Z,85.20
2018-11-06T02:09:07.408Z,85.02
2018-11-06T02:14:09.804Z,85.15
2018-11-06T02:19:12.233Z,85.54
2018-11-06T02:24:14.580Z,85.70
2018-11-06T02:29:16.943Z,85.48
2018-11-06T02:34:19.416Z,85.94
2018-11-06T02:39:21.771Z,86.06
2018-11-06T02:44:24.347Z,85.33
2018-11-06T02:49:26.694Z,86.31
2018-11-06T02:54:29.265Z,86.40
2018-11-06T02:59:31.627Z,86.49
2018-11-06T03:04:34.030Z,87.25
2018-11-06T03:09:36.438Z,87.61
2018-11-06T03:14:38.796Z,87.92
2018-11-06T03:19:41.104Z,88.02
2018-11-06T03:24:43.396Z,88.04
2018-11-06T03:29:45.714Z,88.34
2018-11-06T03:34:48.005Z,88.25
2018-11-06T03:39:50.306Z,88.16
2018-11-06T03:44:52.648Z,88.47
2018-11-06T03:49:54.974Z,88.57
2018-11-06T03:54:57.276Z,88.82
2018-11-06T03:59:59.852Z,88.91
2018-11-06T04:05:02.239Z,88.63
2018-11-06T04:10:05.517Z,88.85
2018-11-06T04:15:12.276Z,89.13
2018-11-06T04:20:14.679Z,88.90
2018-11-06T04:25:17.009Z,88.76
2018-11-06T04:30:19.574Z,88.84
2018-11-06T04:35:21.886Z,88.44
2018-11-06T04:40:24.261Z,87.76
2018-11-06T04:45:26.602Z,87.82
2018-11-06T04:50:31.325Z,88.04
2018-11-06T04:55:33.630Z,87.92
2018-11-06T05:00:35.962Z,88.30
2018-11-06T05:05:38.278Z,88.21
2018-11-06T05:10:40.570Z,88.66
2018-11-06T05:15:42.918Z,87.57
2018-11-06T05:20:46.535Z,87.76
2018-11-06T05:25:49.080Z,87.50
2018-11-06T05:30:51.366Z,87.66
2018-11-06T05:35:53.634Z,87.56
2018-11-06T05:41:00.749Z,87.70
2018-11-06T05:46:03.115Z,87.89
2018-11-06T05:51:05.529Z,87.99
2018-11-06T05:56:07.806Z,88.62
2018-11-06T06:01:10.275Z,88.93
2018-11-06T06:06:12.554Z,88.92
2018-11-06T06:11:14.882Z,88.91
2018-11-06T06:16:17.203Z,88.43
2018-11-06T06:21:19.549Z,87.84
2018-11-06T06:26:21.831Z,88.29
2018-11-06T06:31:24.111Z,88.13
2018-11-06T06:36:26.387Z,88.27
2018-11-06T06:41:28.682Z,88.47
2018-11-06T06:46:31.037Z,87.80
2018-11-06T06:51:33.362Z,87.38
2018-11-06T06:56:35.662Z,87.32
2018-11-06T07:01:37.969Z,87.36
2018-11-06T07:06:40.252Z,87.20
2018-11-06T07:11:42.545Z,87.67
2018-11-06T07:16:44.878Z,87.92
2018-11-06T07:21:47.151Z,88.12
2018-11-06T07:26:49.423Z,88.07
2018-11-06T07:31:51.994Z,87.36
2018-11-06T07:36:54.263Z,86.48
2018-11-06T07:41:56.569Z,86.42
2018-11-06T07:46:59.114Z,85.98
2018-11-06T07:52:01.410Z,86.35
2018-11-06T07:57:03.798Z,86.12
2018-11-06T08:02:06.153Z,85.75
2018-11-06T08:07:08.434Z,85.15
2018-11-06T08:12:10.723Z,84.61
2018-11-06T08:17:13.069Z,82.75
2018-11-06T08:22:15.338Z,82.38
2018-11-06T08:27:17.635Z,82.09
2018-11-06T08:32:20.067Z,82.81
2018-11-06T08:37:22.258Z,83.04
2018-11-06T08:42:24.628Z,81.93
2018-11-06T08:47:26.935Z,79.52
2018-11-06T08:52:29.243Z,78.97
2018-11-06T08:57:31.532Z,79.17
2018-11-06T09:02:33.940Z,77.53
2018-11-06T09:07:36.412Z,76.32
2018-11-06T09:12:39.222Z,75.68
2018-11-06T09:17:41.938Z,75.84
2018-11-06T09:22:44.201Z,75.73
2018-11-06T09:27:46.485Z,73.64
2018-11-06T09:32:48.779Z,74.48
2018-11-06T09:37:51.049Z,73.17
2018-11-06T09:42:53.342Z,73.62
2018-11-06T09:47:55.674Z,72.62
2018-11-06T09:52:58.080Z,70.94
2018-11-06T09:58:00.409Z,71.88
2018-11-06T10:03:02.732Z,69.75
2018-11-06T10:08:05.026Z,70.58
2018-11-06T10:13:07.314Z,69.10
2018-11-06T10:18:09.638Z,68.94
2018-11-06T10:23:11.918Z,68.81
2018-11-06T10:28:14.233Z,67.80
2018-11-06T10:33:16.540Z,67.11
2018-11-06T10:38:18.847Z,66.10
2018-11-06T10:43:21.134Z,67.19
2018-11-06T10:48:23.481Z,65.41
2018-11-06T10:53:26.106Z,66.68
2018-11-06T10:58:28.411Z,64.31
2018-11-06T11:03:34.725Z,64.67
2018-11-06T11:08:36.998Z,63.26
2018-11-06T11:13:39.277Z,63.72
2018-11-06T11:18:41.570Z,62.72
2018-11-06T11:23:43.933Z,62.13
2018-11-06T11:28:46.222Z,63.58
2018-11-06T11:33:48.574Z,62.74
2018-11-06T11:38:50.942Z,63.29
2018-11-06T11:43:53.455Z,63.03
2018-11-06T11:48:55.796Z,63.58
2018-11-06T11:53:58.084Z,63.47
2018-11-06T11:59:00.357Z,65.14
2018-11-06T12:04:02.691Z,63.42
2018-11-06T12:09:07.475Z,64.58
2018-11-06T12:14:09.750Z,63.33
2018-11-06T12:19:12.089Z,63.61
2018-11-06T12:24:14.540Z,62.85
2018-11-06T12:29:16.707Z,63.04
2018-11-06T12:34:19.002Z,61.09
2018-11-06T12:39:21.292Z,61.28
2018-11-06T12:44:23.635Z,60.43
2018-11-06T12:49:25.950Z,58.40
2018-11-06T12:54:28.245Z,59.40
2018-11-06T12:59:30.505Z,58.24
2018-11-06T13:04:32.793Z,58.04
2018-11-06T13:09:35.069Z,57.53
2018-11-06T13:14:37.466Z,56.04
2018-11-06T13:19:39.757Z,55.51
2018-11-06T13:24:42.042Z,55.17
2018-11-06T13:29:44.323Z,53.82
2018-11-06T13:34:46.602Z,53.95
2018-11-06T13:39:48.899Z,55.17
2018-11-06T13:44:51.592Z,54.07
2018-11-06T13:49:53.544Z,52.25
2018-11-06T13:54:55.823Z,52.18
2018-11-06T13:59:58.136Z,52.03
2018-11-06T14:05:00.599Z,52.89
2018-11-06T14:10:02.926Z,51.01
2018-11-06T14:15:05.438Z,51.55
2018-11-06T14:20:09.845Z,51.34
2018-11-06T14:25:12.981Z,52.89
2018-11-06T14:30:17.095Z,53.21
2018-11-06T14:35:19.791Z,55.34
2018-11-06T14:40:22.185Z,55.33
2018-11-06T14:45:24.469Z,57.91
2018-11-06T14:50:26.781Z,59.27
2018-11-06T14:55:29.061Z,59.81
2018-11-06T15:00:31.353Z,60.17
2018-11-06T15:05:33.669Z,61.22
2018-11-06T15:10:36.011Z,61.43
2018-11-06T15:15:38.300Z,62.06
2018-11-06T15:20:40.794Z,62.81
2018-11-06T15:25:43.190Z,62.31
2018-11-06T15:30:45.553Z,62.62
2018-11-06T15:35:47.862Z,64.22
2018-11-06T15:40:50.161Z,63.76
2018-11-06T15:45:52.768Z,64.42
2018-11-06T15:50:55.276Z,65.04
2018-11-06T15:55:57.911Z,64.78
2018-11-06T16:01:01.287Z,64.75
2018-11-06T16:06:03.792Z,65.22
2018-11-06T16:11:07.395Z,65.69
2018-11-06T16:16:09.692Z,66.66
2018-11-06T16:21:13.459Z,66.89
2018-11-06T16:26:15.816Z,66.13
2018-11-06T16:31:18.156Z,67.08
2018-11-06T16:36:20.614Z,68.29
2018-11-06T16:41:23.028Z,68.46
2018-11-06T16:46:25.387Z,68.60
2018-11-06T16:51:27.794Z,69.03
2018-11-06T16:56:30.191Z,70.08
2018-11-06T17:01:32.590Z,69.03
2018-11-06T17:06:39.519Z,69.33
2018-11-06T17:11:41.947Z,69.64
2018-11-06T17:16:44.548Z,69.44
2018-11-06T17:21:46.949Z,69.05
2018-11-06T17:26:49.310Z,70.14
2018-11-06T17:31:51.594Z,69.94
2018-11-06T17:36:53.879Z,70.83
2018-11-06T17:41:56.298Z,71.07
2018-11-06T17:46:58.734Z,71.74
2018-11-06T17:52:01.163Z,71.69
2018-11-06T17:57:03.621Z,72.73
2018-11-06T18:02:06.231Z,73.55
2018-11-06T18:07:08.763Z,74.63
2018-11-06T18:12:10.814Z,74.90
2018-11-06T18:17:13.174Z,75.19
2018-11-06T18:22:15.595Z,75.01
2018-11-06T18:27:17.891Z,75.48
2018-11-06T18:32:20.341Z,76.49
2018-11-06T18:37:22.693Z,76.83
2018-11-06T18:42:25.066Z,77.94
2018-11-06T18:47:27.560Z,77.85
2018-11-06T18:52:30.026Z,78.27
2018-11-06T18:57:32.439Z,78.53
2018-11-06T19:02:34.860Z,79.36
2018-11-06T19:07:37.463Z,79.66
2018-11-06T19:12:39.895Z,79.38
2018-11-06T19:17:43.004Z,79.75
2018-11-06T19:22:45.626Z,80.09
2018-11-06T19:27:47.890Z,80.26
2018-11-06T19:32:50.228Z,80.11
2018-11-06T19:37:52.547Z,80.46
2018-11-06T19:42:54.839Z,80.75
2018-11-06T19:47:57.178Z,81.37
2018-11-06T19:52:59.528Z,81.28
2018-11-06T19:58:01.899Z,82.06
2018-11-06T20:03:04.740Z,82.11
2018-11-06T20:08:07.085Z,82.51
2018-11-06T20:13:09.826Z,82.90
2018-11-06T20:18:12.298Z,82.40
2018-11-06T20:23:14.643Z,82.37
2018-11-06T20:28:16.919Z,82.43
2018-11-06T20:33:19.316Z,82.78
2018-11-06T20:38:21.511Z,82.47
2018-11-06T20:43:23.787Z,83.11
2018-11-06T20:48:26.106Z,83.68
2018-11-06T20:53:28.456Z,83.63
2018-11-06T20:58:30.757Z,83.64
2018-11-06T21:03:33.255Z,83.40
2018-11-06T21:08:35.592Z,83.82
2018-11-06T21:13:38.370Z,84.03
2018-11-06T21:18:40.812Z,84.18
2018-11-06T21:23:43.532Z,84.34
2018-11-06T21:28:45.805Z,84.40
2018-11-06T21:33:48.144Z,84.43
2018-11-06T21:38:50.430Z,84.14
2018-11-06T21:43:52.761Z,84.61
2018-11-06T21:48:55.034Z,85.29
2018-11-06T21:53:57.476Z,84.69
2018-11-06T21:58:59.737Z,85.38
2018-11-06T22:04:02.055Z,84.71
2018-11-06T22:09:06.305Z,85.12
2018-11-06T22:14:08.642Z,86.03
2018-11-06T22:19:10.960Z,85.32
2018-11-06T22:24:13.335Z,85.67
2018-11-06T22:29:15.607Z,85.67
2018-11-06T22:34:17.886Z,86.20
2018-11-06T22:39:20.190Z,85.95
2018-11-06T22:44:22.457Z,86.76
2018-11-06T22:49:24.722Z,86.52
2018-11-06T22:54:27.081Z,87.14
2018-11-06T22:59:29.426Z,87.36
2018-11-06T23:04:31.722Z,87.23
2018-11-06T23:09:33.988Z,88.12
2018-11-06T23:14:36.276Z,86.98
2018-11-06T23:19:38.573Z,87.46
2018-11-06T23:24:40.869Z,87.94
2018-11-06T23:29:43.154Z,87.88
2018-11-06T23:34:45.416Z,87.80
2018-11-06T23:39:47.709Z,87.41
2018-11-06T23:44:49.981Z,87.51
2018-11-06T23:49:52.266Z,87.34
2018-11-06T23:54:54.801Z,87.36
2018-11-06T23:59:57.398Z,87.85
